createdAt,value
2023-02-13T00:10:13.707Z,102000.98
2023-02-13T00:25:16.917Z,101988.92
2023-02-13T00:40:20.225Z,101987.35
2023-02-13T00:55:23.440Z,101978.73
2023-02-13T01:10:27.321Z,101973.05
2023-02-13T01:25:30.635Z,101965.77
2023-02-13T01:40:34.604Z,101967.88
2023-02-13T01:55:50.072Z,101959.69
2023-02-13T02:10:56.486Z,101954.70
2023-02-13T02:26:12.497Z,101957.96
2023-02-13T02:41:44.244Z,101943.48
2023-02-13T02:56:53.497Z,101949.70
2023-02-13T03:12:20.829Z,101956.73
2023-02-13T03:27:54.056Z,101965.79
2023-02-13T03:43:11.244Z,101976.36
2023-02-13T03:58:37.683Z,101979.68
2023-02-13T04:13:50.231Z,101978.72
2023-02-13T04:28:53.377Z,101981.98
2023-02-13T04:43:56.828Z,101987.23
2023-02-13T04:59:00.043Z,101978.16
2023-02-13T05:14:03.227Z,101977.17
2023-02-13T05:29:23.117Z,101992.42
2023-02-13T05:44:26.335Z,101998.06
2023-02-13T05:59:29.421Z,101981.36
2023-02-13T06:14:32.596Z,101987.47
2023-02-13T06:29:35.741Z,101983.86
2023-02-13T06:44:38.846Z,101993.61
2023-02-13T06:59:42.331Z,102001.55
2023-02-13T07:14:45.598Z,102002.80
2023-02-13T07:29:48.780Z,101995.95
2023-02-13T07:44:51.990Z,101996.25
2023-02-13T07:59:55.199Z,101977.40
2023-02-13T08:14:58.347Z,101971.11
2023-02-13T08:30:03.356Z,101972.55
2023-02-13T08:45:06.753Z,101977.73
2023-02-13T09:00:10.320Z,101969.61
2023-02-13T09:15:13.680Z,101984.02
2023-02-13T09:30:23.563Z,101969.19
2023-02-13T09:45:27.131Z,101960.82
2023-02-13T10:00:39.705Z,101968.77
2023-02-13T10:16:00.556Z,101968.66
2023-02-13T10:31:12.922Z,101963.52
2023-02-13T10:46:40.747Z,101937.41
2023-02-13T11:01:53.979Z,101921.02
2023-02-13T11:17:07.352Z,101910.98
2023-02-13T11:32:25.511Z,101903.70
2023-02-13T11:47:39.113Z,101896.52
2023-02-13T12:02:52.471Z,101883.39
2023-02-13T12:18:11.042Z,101861.07
2023-02-13T12:33:45.914Z,101849.37
2023-02-13T12:48:55.135Z,101843.39
2023-02-13T13:04:31.911Z,101836.06
2023-02-13T13:19:54.426Z,101829.56
2023-02-13T13:34:58.859Z,101827.96
2023-02-13T13:50:05.945Z,101823.44
2023-02-13T14:05:23.992Z,101831.26
2023-02-13T14:20:32.871Z,101817.90
2023-02-13T14:35:38.187Z,101811.02
2023-02-13T14:50:52.072Z,101792.17
2023-02-13T15:06:00.167Z,101791.80
2023-02-13T15:21:03.539Z,101811.45
2023-02-13T15:36:07.111Z,101814.44
2023-02-13T15:51:19.857Z,101811.11
2023-02-13T16:07:02.730Z,101806.37
2023-02-13T16:22:29.878Z,101806.04
2023-02-13T16:37:34.464Z,101812.99
2023-02-13T16:52:37.960Z,101821.08
2023-02-13T17:07:51.136Z,101833.66
2023-02-13T17:22:57.418Z,101848.55
2023-02-13T17:38:01.228Z,101864.80
2023-02-13T17:53:07.448Z,101880.66
2023-02-13T18:08:11.036Z,101889.79
2023-02-13T18:23:14.442Z,101877.70
2023-02-13T18:38:18.417Z,101882.58
2023-02-13T18:53:21.924Z,101888.34
2023-02-13T19:08:25.159Z,101903.36
2023-02-13T19:23:28.608Z,101910.85
2023-02-13T19:38:32.412Z,101915.14
2023-02-13T19:53:36.030Z,101920.82
2023-02-13T20:08:41.933Z,101920.57
2023-02-13T20:23:51.461Z,101933.88
2023-02-13T20:38:57.229Z,101947.85
2023-02-13T20:54:01.037Z,101946.60
2023-02-13T21:09:07.167Z,101952.08
2023-02-13T21:24:13.676Z,101953.59
2023-02-13T21:39:17.030Z,101950.19
2023-02-13T21:54:20.235Z,101942.83
2023-02-13T22:09:23.736Z,101948.33
2023-02-13T22:24:27.971Z,101958.56
2023-02-13T22:39:31.453Z,101954.59
2023-02-13T22:54:34.744Z,101955.23
2023-02-13T23:09:37.945Z,101962.02
2023-02-13T23:24:41.177Z,101971.88
2023-02-13T23:39:44.486Z,101967.33
2023-02-13T23:54:49.488Z,101973.77
